| time (UTC) | temp F | wind direction | speed knots | gust knots | rain 1hr in | rain 24hr in | rain mn in | humidity % | barometer mb |
| 20260509024232 | 57 | 40 | 0.0 | 0.9 | 0.00 | 0.00 | 0.02 | 86 | 1010.8 |
| 20260509023731 | 57 | 346 | 0.9 | 1.7 | 0.00 | 0.00 | 0.02 | 86 | 1010.9 |
| 20260509023234 | 57 | 0 | 1.7 | 3.5 | 0.00 | 0.00 | 0.02 | 87 | 1010.9 |
| 20260509022731 | 57 | 8 | 0.0 | 1.7 | 0.00 | 0.00 | 0.02 | 87 | 1011.0 |
| 20260509022233 | 57 | 351 | 0.9 | 1.7 | 0.01 | 0.00 | 0.02 | 87 | 1010.7 |
| 20260509021732 | 57 | 293 | 0.0 | 1.7 | 0.01 | 0.00 | 0.02 | 88 | 1010.6 |
| 20260509021234 | 57 | 0 | 0.0 | 0.0 | 0.01 | 0.00 | 0.02 | 88 | 1010.5 |
| 20260509020733 | 57 | 12 | 0.0 | 0.9 | 0.01 | 0.00 | 0.02 | 87 | 1010.4 |
| 20260509020232 | 57 | 0 | 0.0 | 0.0 | 0.01 | 0.00 | 0.02 | 87 | 1010.4 |
| 20260509015733 | 57 | 0 | 0.0 | 0.0 | 0.01 | 0.00 | 0.02 | 86 | 1010.5 |
| 20260509015235 | 57 | 0 | 0.0 | 0.0 | 0.01 | 0.00 | 0.02 | 86 | 1010.4 |
| 20260509014732 | 58 | 63 | 0.0 | 0.9 | 0.01 | 0.00 | 0.02 | 85 | 1010.4 |
| 20260509014231 | 58 | 0 | 0.0 | 0.0 | 0.01 | 0.00 | 0.02 | 85 | 1010.5 |
| 20260509013731 | 58 | 0 | 0.0 | 0.0 | 0.01 | 0.00 | 0.02 | 84 | 1010.4 |
| 20260509013233 | 58 | 217 | 1.7 | 1.7 | 0.01 | 0.00 | 0.02 | 84 | 1010.5 |
| 20260509012732 | 58 | 0 | 0.0 | 0.0 | 0.01 | 0.00 | 0.02 | 84 | 1010.4 |
| 20260509012231 | 58 | 5 | 2.6 | 3.5 | 0.01 | 0.00 | 0.02 | 83 | 1010.3 |
| 20260509011734 | 59 | 49 | 0.0 | 0.9 | 0.01 | 0.00 | 0.02 | 82 | 1010.4 |
| 20260509011233 | 59 | 179 | 1.7 | 2.6 | 0.01 | 0.00 | 0.02 | 81 | 1010.4 |
| 20260509010732 | 59 | 11 | 0.9 | 1.7 | 0.01 | 0.00 | 0.02 | 81 | 1010.3 |
| 20260509010233 | 58 | 229 | 0.9 | 1.7 | 0.01 | 0.00 | 0.02 | 84 | 1010.3 |
| 20260509005731 | 58 | 208 | 0.0 | 0.9 | 0.01 | 0.00 | 0.02 | 87 | 1010.3 |
| 20260509005231 | 58 | 0 | 0.0 | 0.0 | 0.01 | 0.00 | 0.02 | 86 | 1010.0 |
| 20260509004731 | 59 | 0 | 0.0 | 0.0 | 0.01 | 0.00 | 0.02 | 85 | 1009.8 |
| 20260509004232 | 59 | 0 | 0.0 | 0.0 | 0.01 | 0.00 | 0.02 | 84 | 1009.7 |
| 20260509003731 | 59 | 0 | 0.0 | 0.0 | 0.01 | 0.00 | 0.01 | 83 | 1009.7 |
| 20260509003231 | 59 | 24 | 0.0 | 1.7 | 0.01 | 0.00 | 0.01 | 82 | 1009.7 |
| 20260509002731 | 60 | 346 | 0.9 | 1.7 | 0.00 | 0.00 | 0.01 | 80 | 1009.7 |
| 20260509002232 | 60 | 0 | 0.0 | 0.0 | 0.00 | 0.00 | 0.01 | 79 | 1009.7 |
| 20260509001731 | 60 | 81 | 0.0 | 0.9 | 0.01 | 0.00 | 0.01 | 77 | 1009.8 |
| 20260509001232 | 60 | 0 | 0.0 | 0.0 | 0.01 | 0.00 | 0.01 | 78 | 1009.8 |
| 20260509000732 | 60 | 0 | 0.0 | 0.0 | 0.01 | 0.00 | 0.01 | 78 | 1009.8 |
| 20260509000234 | 60 | 0 | 0.0 | 0.0 | 0.01 | 0.00 | 0.01 | 78 | 1009.8 |
| 20260508235733 | 60 | 36 | 0.0 | 0.0 | 0.01 | 0.00 | 0.01 | 77 | 1009.8 |
| 20260508235233 | 60 | 0 | 0.0 | 0.0 | 0.01 | 0.00 | 0.01 | 78 | 1009.7 |
| 20260508234731 | 61 | 0 | 0.0 | 0.0 | 0.01 | 0.00 | 0.01 | 77 | 1009.7 |
| 20260508234232 | 61 | 27 | 0.0 | 0.9 | 0.00 | 0.00 | 0.01 | 75 | 1009.7 |
| 20260508233732 | 61 | 20 | 0.9 | 1.7 | 0.00 | 0.00 | 0.01 | 73 | 1009.6 |
| 20260508233232 | 62 | 0 | 0.0 | 0.0 | 0.00 | 0.00 | 0.00 | 73 | 1009.7 |
| 20260508232733 | 62 | 27 | 0.9 | 1.7 | 0.00 | 0.00 | 0.00 | 69 | 1009.8 |
| 20260508232233 | 63 | 0 | 0.0 | 0.0 | 0.00 | 0.00 | 0.00 | 68 | 1009.9 |
| 20260508231732 | 63 | 206 | 0.9 | 1.7 | 0.00 | 0.00 | 0.00 | 66 | 1009.9 |
| 20260508231232 | 63 | 0 | 0.0 | 0.0 | 0.00 | 0.00 | 0.00 | 63 | 1009.8 |
| 20260508230732 | 64 | 0 | 0.0 | 0.0 | 0.00 | 0.00 | 0.00 | 61 | 1009.7 |
| 20260508230232 | 64 | 0 | 0.0 | 0.0 | 0.00 | 0.00 | 0.00 | 59 | 1009.7 |
| 20260508225732 | 65 | 0 | 0.0 | 0.0 | 0.00 | 0.00 | 0.00 | 57 | 1009.7 |
| 20260508225234 | 65 | 322 | 0.0 | 0.9 | 0.00 | 0.00 | 0.00 | 55 | 1009.6 |
| 20260508224732 | 66 | 0 | 0.0 | 0.0 | 0.00 | 0.00 | 0.00 | 54 | 1009.5 |
| 20260508224231 | 66 | 191 | 0.0 | 0.9 | 0.00 | 0.00 | 0.00 | 51 | 1009.5 |
| 20260508223731 | 66 | 161 | 0.0 | 1.7 | 0.00 | 0.00 | 0.00 | 50 | 1009.5 |
| 20260508223234 | 66 | 218 | 0.0 | 0.9 | 0.00 | 0.00 | 0.00 | 50 | 1009.4 |
| 20260508222733 | 67 | 186 | 0.0 | 0.0 | 0.00 | 0.00 | 0.00 | 49 | 1009.4 |
| 20260508222236 | 67 | 217 | 2.6 | 2.6 | 0.00 | 0.00 | 0.00 | 48 | 1009.5 |
| 20260508221732 | 67 | 220 | 1.7 | 2.6 | 0.00 | 0.00 | 0.00 | 47 | 1009.5 |
| 20260508221233 | 67 | 225 | 1.7 | 3.5 | 0.00 | 0.00 | 0.00 | 48 | 1009.5 |
| 20260508220733 | 67 | 233 | 3.5 | 6.1 | 0.00 | 0.00 | 0.00 | 47 | 1009.5 |
| 20260508220233 | 67 | 223 | 2.6 | 3.5 | 0.00 | 0.00 | 0.00 | 47 | 1009.5 |
| 20260508215732 | 67 | 231 | 2.6 | 3.5 | 0.00 | 0.00 | 0.00 | 47 | 1009.4 |
| 20260508215233 | 67 | 235 | 3.5 | 4.3 | 0.00 | 0.00 | 0.00 | 47 | 1009.5 |
| 20260508214733 | 67 | 212 | 5.2 | 7.0 | 0.00 | 0.00 | 0.00 | 46 | 1009.4 |
| 20260508214234 | 67 | 193 | 4.3 | 6.1 | 0.00 | 0.00 | 0.00 | 46 | 1009.4 |
| 20260508213731 | 67 | 228 | 1.7 | 3.5 | 0.00 | 0.00 | 0.00 | 47 | 1009.4 |
| 20260508213231 | 67 | 185 | 1.7 | 3.5 | 0.00 | 0.00 | 0.00 | 47 | 1009.4 |
| 20260508212733 | 67 | 214 | 3.5 | 4.3 | 0.00 | 0.00 | 0.00 | 47 | 1009.5 |
| 20260508212231 | 67 | 224 | 3.5 | 4.3 | 0.00 | 0.00 | 0.00 | 47 | 1009.6 |
| 20260508211733 | 67 | 223 | 2.6 | 3.5 | 0.00 | 0.00 | 0.00 | 46 | 1009.6 |
| 20260508211232 | 67 | 235 | 5.2 | 7.8 | 0.00 | 0.00 | 0.00 | 46 | 1009.7 |
| 20260508210732 | 67 | 205 | 0.9 | 1.7 | 0.00 | 0.00 | 0.00 | 46 | 1009.6 |
| 20260508210233 | 67 | 211 | 2.6 | 3.5 | 0.00 | 0.00 | 0.00 | 46 | 1009.8 |
| 20260508205731 | 67 | 236 | 3.5 | 5.2 | 0.00 | 0.00 | 0.00 | 46 | 1009.8 |
| 20260508205232 | 67 | 203 | 3.5 | 6.1 | 0.00 | 0.00 | 0.00 | 46 | 1010.0 |
| 20260508204733 | 67 | 229 | 6.1 | 11.3 | 0.00 | 0.00 | 0.00 | 45 | 1010.1 |
| 20260508204233 | 67 | 200 | 2.6 | 3.5 | 0.00 | 0.00 | 0.00 | 46 | 1010.2 |
| 20260508203738 | 67 | 240 | 5.2 | 7.0 | 0.00 | 0.00 | 0.00 | 45 | 1010.3 |
| 20260508203235 | 67 | 231 | 7.0 | 11.3 | 0.00 | 0.00 | 0.00 | 45 | 1010.3 |
| 20260508202732 | 67 | 228 | 7.0 | 9.6 | 0.00 | 0.00 | 0.00 | 45 | 1010.4 |
| 20260508202233 | 67 | 222 | 5.2 | 6.1 | 0.00 | 0.00 | 0.00 | 45 | 1010.4 |
| 20260508201734 | 67 | 232 | 3.5 | 5.2 | 0.00 | 0.00 | 0.00 | 45 | 1010.5 |
| 20260508201231 | 67 | 220 | 6.1 | 9.6 | 0.00 | 0.00 | 0.00 | 45 | 1010.5 |
| 20260508200732 | 67 | 233 | 5.2 | 7.8 | 0.00 | 0.00 | 0.00 | 45 | 1010.6 |
| 20260508200233 | 67 | 231 | 4.3 | 9.6 | 0.00 | 0.00 | 0.00 | 45 | 1010.5 |
| 20260508195733 | 67 | 234 | 7.0 | 10.4 | 0.00 | 0.00 | 0.00 | 44 | 1010.5 |
| 20260508195233 | 67 | 218 | 6.1 | 9.6 | 0.00 | 0.00 | 0.00 | 44 | 1010.6 |
| 20260508194732 | 67 | 229 | 5.2 | 8.7 | 0.00 | 0.00 | 0.00 | 44 | 1010.7 |
| 20260508194231 | 67 | 216 | 3.5 | 4.3 | 0.00 | 0.00 | 0.00 | 45 | 1010.7 |
| 20260508193733 | 67 | 222 | 6.1 | 7.8 | 0.00 | 0.00 | 0.00 | 44 | 1010.8 |
| 20260508193231 | 67 | 227 | 4.3 | 7.0 | 0.00 | 0.00 | 0.00 | 44 | 1010.8 |
| 20260508192732 | 67 | 231 | 9.6 | 14.8 | 0.00 | 0.00 | 0.00 | 43 | 1010.7 |
| 20260508192233 | 68 | 228 | 5.2 | 7.0 | 0.00 | 0.00 | 0.00 | 44 | 1010.8 |
| 20260508191733 | 68 | 212 | 4.3 | 7.0 | 0.00 | 0.00 | 0.00 | 44 | 1010.9 |
| 20260508191231 | 68 | 235 | 7.8 | 10.4 | 0.00 | 0.00 | 0.00 | 43 | 1010.9 |
| 20260508190734 | 69 | 226 | 7.8 | 9.6 | 0.00 | 0.00 | 0.00 | 43 | 1010.9 |
| 20260508190231 | 69 | 222 | 7.8 | 11.3 | 0.00 | 0.00 | 0.00 | 44 | 1011.1 |
| 20260508185733 | 68 | 201 | 5.2 | 8.7 | 0.00 | 0.00 | 0.00 | 44 | 1011.0 |
| 20260508185232 | 68 | 215 | 9.6 | 13.0 | 0.00 | 0.00 | 0.00 | 44 | 1011.2 |
| 20260508184731 | 68 | 221 | 8.7 | 11.3 | 0.00 | 0.00 | 0.00 | 44 | 1011.5 |
| 20260508184234 | 68 | 230 | 8.7 | 11.3 | 0.00 | 0.00 | 0.00 | 45 | 1011.5 |
| 20260508183733 | 68 | 228 | 7.0 | 8.7 | 0.00 | 0.00 | 0.00 | 45 | 1011.6 |
| 20260508183232 | 68 | 208 | 5.2 | 8.7 | 0.00 | 0.00 | 0.00 | 45 | 1011.7 |
| 20260508182734 | 68 | 220 | 7.8 | 12.2 | 0.00 | 0.00 | 0.00 | 44 | 1011.8 |
| 20260508182233 | 68 | 191 | 6.1 | 8.7 | 0.00 | 0.00 | 0.00 | 46 | 1011.7 |
| 20260508181733 | 68 | 224 | 7.0 | 8.7 | 0.00 | 0.00 | 0.00 | 46 | 1011.8 |
| 20260508181231 | 68 | 221 | 5.2 | 11.3 | 0.00 | 0.00 | 0.00 | 47 | 1011.9 |
| 20260508180732 | 67 | 233 | 7.8 | 13.0 | 0.00 | 0.00 | 0.00 | 45 | 1012.0 |
| 20260508180234 | 67 | 213 | 3.5 | 5.2 | 0.00 | 0.00 | 0.00 | 47 | 1012.0 |
| 20260508175733 | 67 | 234 | 4.3 | 6.1 | 0.00 | 0.00 | 0.00 | 47 | 1012.3 |
| 20260508175233 | 67 | 211 | 5.2 | 7.8 | 0.00 | 0.00 | 0.00 | 48 | 1012.3 |
| 20260508174734 | 66 | 222 | 6.1 | 10.4 | 0.00 | 0.00 | 0.00 | 48 | 1012.3 |
| 20260508174232 | 66 | 212 | 6.1 | 9.6 | 0.00 | 0.00 | 0.00 | 47 | 1012.3 |
| 20260508173734 | 65 | 227 | 7.0 | 10.4 | 0.00 | 0.00 | 0.00 | 49 | 1012.3 |
| 20260508173233 | 65 | 226 | 4.3 | 6.1 | 0.00 | 0.00 | 0.00 | 49 | 1012.6 |
| 20260508172733 | 65 | 197 | 5.2 | 7.8 | 0.00 | 0.00 | 0.00 | 49 | 1012.7 |
| 20260508172232 | 65 | 238 | 7.8 | 11.3 | 0.00 | 0.00 | 0.00 | 49 | 1012.8 |
| 20260508171732 | 65 | 226 | 3.5 | 5.2 | 0.00 | 0.00 | 0.00 | 50 | 1012.9 |
| 20260508171232 | 65 | 225 | 7.0 | 9.6 | 0.00 | 0.00 | 0.00 | 50 | 1012.9 |
| 20260508170734 | 65 | 232 | 5.2 | 8.7 | 0.00 | 0.00 | 0.00 | 50 | 1012.9 |
| 20260508170234 | 66 | 230 | 9.6 | 14.8 | 0.00 | 0.00 | 0.00 | 49 | 1013.0 |
| 20260508165732 | 66 | 243 | 3.5 | 5.2 | 0.00 | 0.00 | 0.00 | 50 | 1013.0 |
| 20260508165233 | 66 | 228 | 6.1 | 7.8 | 0.00 | 0.00 | 0.00 | 49 | 1013.3 |
| 20260508164733 | 66 | 215 | 5.2 | 7.0 | 0.00 | 0.00 | 0.00 | 50 | 1013.4 |
| 20260508164233 | 65 | 230 | 5.2 | 7.8 | 0.00 | 0.00 | 0.00 | 51 | 1013.5 |
| 20260508163732 | 66 | 224 | 7.8 | 10.4 | 0.00 | 0.00 | 0.00 | 50 | 1013.6 |
| 20260508163233 | 66 | 206 | 6.1 | 9.6 | 0.00 | 0.00 | 0.00 | 50 | 1013.6 |
| 20260508162732 | 65 | 193 | 5.2 | 7.0 | 0.00 | 0.00 | 0.00 | 51 | 1013.7 |
| 20260508162234 | 65 | 230 | 5.2 | 7.8 | 0.00 | 0.00 | 0.00 | 52 | 1013.8 |
| 20260508161732 | 65 | 215 | 4.3 | 7.0 | 0.00 | 0.00 | 0.00 | 52 | 1013.7 |
| 20260508161233 | 65 | 203 | 5.2 | 11.3 | 0.00 | 0.00 | 0.00 | 52 | 1013.8 |
| 20260508160733 | 64 | 204 | 6.1 | 10.4 | 0.00 | 0.00 | 0.00 | 52 | 1013.8 |
| 20260508160233 | 64 | 226 | 7.0 | 11.3 | 0.00 | 0.00 | 0.00 | 53 | 1013.8 |
| 20260508155732 | 64 | 228 | 7.0 | 9.6 | 0.00 | 0.00 | 0.00 | 53 | 1013.9 |
| 20260508155232 | 64 | 194 | 6.1 | 10.4 | 0.00 | 0.00 | 0.00 | 52 | 1014.0 |
| 20260508154732 | 63 | 182 | 7.8 | 9.6 | 0.00 | 0.00 | 0.00 | 53 | 1014.1 |
| 20260508154234 | 63 | 196 | 6.1 | 7.8 | 0.00 | 0.00 | 0.00 | 54 | 1014.1 |
| 20260508153732 | 63 | 208 | 6.1 | 9.6 | 0.00 | 0.00 | 0.00 | 54 | 1014.2 |
| 20260508153234 | 63 | 225 | 5.2 | 7.0 | 0.00 | 0.00 | 0.00 | 54 | 1014.2 |
| 20260508152732 | 62 | 231 | 7.0 | 11.3 | 0.00 | 0.00 | 0.00 | 54 | 1014.3 |
| 20260508152233 | 62 | 228 | 5.2 | 7.8 | 0.00 | 0.00 | 0.00 | 55 | 1014.3 |
| 20260508151737 | 62 | 217 | 6.1 | 10.4 | 0.00 | 0.00 | 0.00 | 54 | 1014.4 |
| 20260508151233 | 62 | 243 | 7.0 | 9.6 | 0.00 | 0.00 | 0.00 | 54 | 1014.4 |
| 20260508150734 | 62 | 183 | 5.2 | 7.8 | 0.00 | 0.00 | 0.00 | 56 | 1014.4 |
| 20260508150233 | 61 | 229 | 5.2 | 7.0 | 0.00 | 0.00 | 0.00 | 55 | 1014.5 |
| 20260508145735 | 61 | 229 | 6.1 | 7.8 | 0.00 | 0.00 | 0.00 | 55 | 1014.4 |
| 20260508145236 | 60 | 224 | 6.1 | 9.6 | 0.00 | 0.00 | 0.00 | 55 | 1014.5 |
| 20260508144734 | 60 | 229 | 5.2 | 7.8 | 0.00 | 0.00 | 0.00 | 55 | 1014.5 |
| 20260508144234 | 60 | 249 | 5.2 | 7.0 | 0.00 | 0.00 | 0.00 | 55 | 1014.4 |
| 20260508143733 | 60 | 231 | 7.8 | 10.4 | 0.00 | 0.00 | 0.00 | 55 | 1014.5 |
| 20260508143233 | 59 | 234 | 6.1 | 9.6 | 0.00 | 0.00 | 0.00 | 55 | 1014.6 |
| 20260508142733 | 59 | 232 | 7.0 | 10.4 | 0.00 | 0.00 | 0.00 | 55 | 1014.6 |
| 20260508142234 | 59 | 233 | 5.2 | 7.0 | 0.00 | 0.00 | 0.00 | 56 | 1014.7 |
| 20260508141733 | 59 | 222 | 7.0 | 8.7 | 0.00 | 0.00 | 0.00 | 55 | 1014.7 |
| 20260508141233 | 59 | 251 | 6.1 | 10.4 | 0.00 | 0.00 | 0.00 | 56 | 1014.8 |
| 20260508140733 | 58 | 226 | 9.6 | 13.0 | 0.00 | 0.00 | 0.00 | 55 | 1014.9 |
| 20260508140233 | 58 | 222 | 10.4 | 13.0 | 0.00 | 0.00 | 0.00 | 55 | 1014.9 |
| 20260508135733 | 58 | 236 | 9.6 | 12.2 | 0.00 | 0.00 | 0.00 | 56 | 1014.8 |
| 20260508135234 | 58 | 211 | 5.2 | 9.6 | 0.00 | 0.00 | 0.00 | 56 | 1014.8 |
| 20260508134734 | 57 | 211 | 4.3 | 7.0 | 0.00 | 0.00 | 0.00 | 56 | 1014.8 |
| 20260508134235 | 57 | 225 | 7.8 | 11.3 | 0.00 | 0.00 | 0.00 | 55 | 1014.8 |
| 20260508133734 | 57 | 227 | 7.8 | 11.3 | 0.00 | 0.00 | 0.00 | 56 | 1014.8 |
| 20260508133234 | 57 | 223 | 6.1 | 10.4 | 0.00 | 0.00 | 0.00 | 57 | 1014.8 |
| 20260508132732 | 56 | 216 | 5.2 | 7.0 | 0.00 | 0.00 | 0.00 | 59 | 1014.8 |
| 20260508132233 | 56 | 211 | 5.2 | 7.0 | 0.00 | 0.00 | 0.00 | 59 | 1014.8 |
| 20260508131733 | 56 | 216 | 4.3 | 7.8 | 0.00 | 0.00 | 0.00 | 60 | 1014.8 |
| 20260508131234 | 55 | 211 | 6.1 | 9.6 | 0.00 | 0.00 | 0.00 | 59 | 1014.8 |
| 20260508130733 | 55 | 218 | 6.1 | 7.8 | 0.00 | 0.00 | 0.00 | 59 | 1014.8 |
| 20260508130234 | 55 | 221 | 6.1 | 8.7 | 0.00 | 0.00 | 0.00 | 59 | 1014.8 |
| 20260508125734 | 55 | 221 | 7.0 | 8.7 | 0.00 | 0.00 | 0.00 | 60 | 1014.7 |
| 20260508125233 | 55 | 226 | 7.0 | 9.6 | 0.00 | 0.00 | 0.00 | 60 | 1014.7 |
| 20260508124734 | 55 | 195 | 2.6 | 3.5 | 0.00 | 0.00 | 0.00 | 62 | 1014.7 |
| 20260508124233 | 54 | 172 | 4.3 | 6.1 | 0.00 | 0.00 | 0.00 | 62 | 1014.7 |
| 20260508123733 | 54 | 225 | 4.3 | 6.1 | 0.00 | 0.00 | 0.00 | 62 | 1014.6 |
| 20260508123233 | 53 | 177 | 4.3 | 7.0 | 0.00 | 0.00 | 0.00 | 63 | 1014.6 |
| 20260508122733 | 53 | 215 | 4.3 | 6.1 | 0.00 | 0.00 | 0.00 | 64 | 1014.5 |
| 20260508122234 | 53 | 221 | 6.1 | 9.6 | 0.00 | 0.00 | 0.00 | 64 | 1014.6 |
| 20260508121733 | 52 | 216 | 3.5 | 6.1 | 0.00 | 0.00 | 0.00 | 65 | 1014.6 |
| 20260508121233 | 52 | 203 | 4.3 | 6.1 | 0.00 | 0.00 | 0.00 | 66 | 1014.6 |
| 20260508120734 | 51 | 203 | 3.5 | 6.1 | 0.00 | 0.00 | 0.00 | 67 | 1014.6 |
| 20260508120232 | 50 | 192 | 2.6 | 3.5 | 0.00 | 0.00 | 0.00 | 69 | 1014.6 |
| 20260508115732 | 50 | 160 | 1.7 | 3.5 | 0.00 | 0.00 | 0.00 | 70 | 1014.5 |
| 20260508115231 | 50 | 193 | 0.0 | 0.9 | 0.00 | 0.00 | 0.00 | 71 | 1014.5 |
| 20260508114732 | 50 | 158 | 1.7 | 3.5 | 0.00 | 0.00 | 0.00 | 71 | 1014.4 |
| 20260508114231 | 50 | 186 | 2.6 | 5.2 | 0.00 | 0.00 | 0.00 | 71 | 1014.4 |
| 20260508113731 | 49 | 176 | 0.9 | 1.7 | 0.00 | 0.00 | 0.00 | 72 | 1014.4 |
| 20260508113231 | 49 | 163 | 1.7 | 3.5 | 0.00 | 0.00 | 0.00 | 72 | 1014.3 |
| 20260508112731 | 49 | 161 | 1.7 | 2.6 | 0.00 | 0.00 | 0.00 | 72 | 1014.3 |
| 20260508112232 | 49 | 175 | 1.7 | 3.5 | 0.00 | 0.00 | 0.00 | 72 | 1014.3 |
| 20260508111732 | 49 | 154 | 1.7 | 2.6 | 0.00 | 0.00 | 0.00 | 73 | 1014.2 |
| 20260508111231 | 48 | 160 | 1.7 | 2.6 | 0.00 | 0.00 | 0.00 | 73 | 1014.2 |
| 20260508110731 | 48 | 166 | 0.9 | 1.7 | 0.00 | 0.00 | 0.00 | 74 | 1014.1 |
| 20260508110231 | 48 | 145 | 0.9 | 1.7 | 0.00 | 0.00 | 0.00 | 75 | 1014.0 |
| 20260508105733 | 48 | 166 | 1.7 | 1.7 | 0.00 | 0.00 | 0.00 | 75 | 1014.1 |
| 20260508105231 | 48 | 151 | 1.7 | 2.6 | 0.00 | 0.00 | 0.00 | 75 | 1014.0 |
| 20260508104732 | 47 | 150 | 1.7 | 1.7 | 0.00 | 0.00 | 0.00 | 76 | 1014.1 |
| 20260508104231 | 47 | 143 | 1.7 | 2.6 | 0.00 | 0.00 | 0.00 | 78 | 1014.0 |
| 20260508103731 | 47 | 141 | 0.9 | 1.7 | 0.00 | 0.00 | 0.00 | 78 | 1014.1 |
| 20260508103233 | 46 | 139 | 0.9 | 1.7 | 0.00 | 0.00 | 0.00 | 78 | 1014.1 |
| 20260508102732 | 46 | 158 | 0.0 | 0.9 | 0.00 | 0.00 | 0.00 | 79 | 1014.1 |
| 20260508102233 | 46 | 168 | 0.9 | 1.7 | 0.00 | 0.00 | 0.00 | 79 | 1014.1 |
| 20260508101731 | 46 | 150 | 0.0 | 0.9 | 0.00 | 0.00 | 0.00 | 79 | 1014.1 |
| 20260508101233 | 46 | 0 | 0.0 | 0.0 | 0.00 | 0.00 | 0.00 | 79 | 1014.2 |
| 20260508100733 | 46 | 0 | 0.0 | 0.0 | 0.00 | 0.00 | 0.00 | 80 | 1014.1 |
| 20260508100233 | 46 | 62 | 0.0 | 1.7 | 0.00 | 0.00 | 0.00 | 79 | 1014.1 |
| 20260508095731 | 46 | 85 | 0.0 | 0.9 | 0.00 | 0.00 | 0.00 | 79 | 1014.1 |
| 20260508095233 | 46 | 155 | 0.0 | 0.9 | 0.00 | 0.00 | 0.00 | 79 | 1014.1 |
| 20260508094731 | 46 | 143 | 1.7 | 2.6 | 0.00 | 0.00 | 0.00 | 80 | 1014.0 |
| 20260508094231 | 46 | 142 | 0.9 | 1.7 | 0.00 | 0.00 | 0.00 | 81 | 1014.1 |
| 20260508093732 | 45 | 115 | 0.9 | 1.7 | 0.00 | 0.00 | 0.00 | 83 | 1014.1 |
| 20260508093231 | 45 | 174 | 0.9 | 1.7 | 0.00 | 0.00 | 0.00 | 84 | 1014.2 |
| 20260508092732 | 44 | 172 | 0.0 | 1.7 | 0.00 | 0.00 | 0.00 | 85 | 1014.2 |
| 20260508092231 | 44 | 155 | 0.0 | 0.9 | 0.00 | 0.00 | 0.00 | 85 | 1014.2 |
| 20260508091733 | 44 | 184 | 0.0 | 1.7 | 0.00 | 0.00 | 0.00 | 85 | 1014.1 |
| 20260508091232 | 44 | 190 | 0.0 | 0.9 | 0.00 | 0.00 | 0.00 | 84 | 1014.1 |
| 20260508090731 | 44 | 171 | 0.9 | 1.7 | 0.00 | 0.00 | 0.00 | 84 | 1014.1 |
| 20260508090231 | 44 | 177 | 1.7 | 2.6 | 0.00 | 0.00 | 0.00 | 84 | 1014.1 |
| 20260508085731 | 45 | 188 | 0.9 | 2.6 | 0.00 | 0.00 | 0.00 | 83 | 1014.2 |
| 20260508085232 | 45 | 166 | 0.9 | 1.7 | 0.00 | 0.00 | 0.00 | 82 | 1014.3 |
| 20260508084736 | 45 | 190 | 0.0 | 0.0 | 0.00 | 0.00 | 0.00 | 82 | 1014.2 |
| 20260508084231 | 44 | 51 | 0.0 | 0.9 | 0.00 | 0.00 | 0.00 | 81 | 1014.3 |
| 20260508083731 | 44 | 358 | 0.9 | 1.7 | 0.00 | 0.00 | 0.00 | 81 | 1014.3 |
| 20260508083231 | 44 | 354 | 0.9 | 1.7 | 0.00 | 0.00 | 0.00 | 81 | 1014.2 |
| 20260508082732 | 44 | 24 | 0.9 | 1.7 | 0.00 | 0.00 | 0.00 | 81 | 1014.1 |
| 20260508082231 | 44 | 41 | 0.9 | 0.9 | 0.00 | 0.00 | 0.00 | 80 | 1014.0 |
| 20260508081731 | 44 | 38 | 0.0 | 0.9 | 0.00 | 0.00 | 0.00 | 79 | 1014.0 |
| 20260508081231 | 44 | 48 | 0.0 | 1.7 | 0.00 | 0.00 | 0.00 | 78 | 1014.0 |
| 20260508080732 | 44 | 69 | 0.0 | 2.6 | 0.00 | 0.00 | 0.00 | 79 | 1014.0 |
| 20260508080231 | 43 | 54 | 1.7 | 3.5 | 0.00 | 0.00 | 0.00 | 80 | 1013.9 |
| 20260508075732 | 43 | 45 | 0.0 | 1.7 | 0.00 | 0.00 | 0.00 | 80 | 1013.9 |
| 20260508075232 | 44 | 55 | 0.0 | 0.9 | 0.00 | 0.00 | 0.00 | 80 | 1013.9 |
| 20260508074733 | 44 | 79 | 0.0 | 0.9 | 0.00 | 0.00 | 0.00 | 79 | 1013.9 |
| 20260508074231 | 44 | 104 | 0.0 | 0.9 | 0.00 | 0.00 | 0.00 | 78 | 1014.0 |
| 20260508073731 | 44 | 66 | 0.0 | 1.7 | 0.00 | 0.00 | 0.00 | 77 | 1014.0 |
| 20260508073234 | 44 | 113 | 0.0 | 1.7 | 0.00 | 0.00 | 0.00 | 77 | 1013.9 |
| 20260508072731 | 45 | 168 | 0.9 | 2.6 | 0.00 | 0.00 | 0.00 | 76 | 1013.9 |
| 20260508072231 | 45 | 73 | 0.9 | 2.6 | 0.00 | 0.00 | 0.00 | 76 | 1013.9 |
| 20260508071731 | 45 | 72 | 0.0 | 0.9 | 0.00 | 0.00 | 0.00 | 74 | 1014.0 |
| 20260508071232 | 46 | 73 | 0.0 | 2.6 | 0.00 | 0.00 | 0.00 | 73 | 1014.0 |
| 20260508070731 | 46 | 62 | 0.0 | 0.9 | 0.00 | 0.00 | 0.00 | 72 | 1014.0 |
| 20260508070232 | 46 | 148 | 0.9 | 2.6 | 0.00 | 0.00 | 0.00 | 71 | 1014.1 |
| 20260508065731 | 46 | 163 | 0.9 | 2.6 | 0.00 | 0.00 | 0.00 | 71 | 1014.1 |
| 20260508065232 | 46 | 132 | 0.9 | 1.7 | 0.00 | 0.00 | 0.00 | 72 | 1014.1 |
| 20260508064731 | 46 | 187 | 0.9 | 2.6 | 0.00 | 0.00 | 0.00 | 71 | 1014.1 |
| 20260508064231 | 46 | 133 | 0.9 | 2.6 | 0.00 | 0.00 | 0.00 | 72 | 1014.3 |
| 20260508063732 | 46 | 137 | 1.7 | 3.5 | 0.00 | 0.00 | 0.00 | 73 | 1014.4 |
| 20260508063231 | 46 | 140 | 0.9 | 1.7 | 0.00 | 0.00 | 0.00 | 73 | 1014.5 |
| 20260508062735 | 46 | 189 | 0.0 | 1.7 | 0.00 | 0.00 | 0.00 | 73 | 1014.6 |
| 20260508062233 | 46 | 208 | 0.0 | 0.9 | 0.00 | 0.00 | 0.00 | 72 | 1014.6 |
| 20260508061732 | 46 | 132 | 0.9 | 1.7 | 0.00 | 0.00 | 0.00 | 73 | 1014.6 |
| 20260508061231 | 46 | 202 | 0.0 | 1.7 | 0.00 | 0.00 | 0.00 | 72 | 1014.6 |
| 20260508060732 | 46 | 134 | 0.0 | 0.9 | 0.00 | 0.00 | 0.00 | 73 | 1014.7 |
| 20260508055754 | 47 | 156 | 0.0 | 0.9 | 0.00 | 0.00 | 0.00 | 72 | 1014.6 |
| 20260508055231 | 47 | 136 | 1.7 | 2.6 | 0.00 | 0.00 | 0.00 | 73 | 1014.6 |
| 20260508054731 | 46 | 120 | 1.7 | 1.7 | 0.00 | 0.00 | 0.00 | 73 | 1014.6 |
| 20260508054232 | 47 | 184 | 0.0 | 1.7 | 0.00 | 0.00 | 0.00 | 73 | 1014.7 |
| 20260508053732 | 47 | 174 | 0.0 | 0.0 | 0.00 | 0.00 | 0.00 | 73 | 1014.7 |
| 20260508053231 | 47 | 214 | 1.7 | 2.6 | 0.00 | 0.00 | 0.00 | 72 | 1014.7 |
| 20260508052732 | 48 | 178 | 0.0 | 1.7 | 0.00 | 0.00 | 0.00 | 72 | 1014.7 |
| 20260508052231 | 48 | 147 | 1.7 | 3.5 | 0.00 | 0.00 | 0.00 | 71 | 1014.7 |
| 20260508051731 | 48 | 149 | 1.7 | 2.6 | 0.00 | 0.00 | 0.00 | 71 | 1014.7 |
| 20260508051231 | 48 | 147 | 1.7 | 1.7 | 0.00 | 0.00 | 0.00 | 71 | 1014.7 |
| 20260508050732 | 48 | 147 | 0.9 | 1.7 | 0.00 | 0.00 | 0.00 | 70 | 1014.6 |
| 20260508050231 | 48 | 148 | 1.7 | 1.7 | 0.00 | 0.00 | 0.00 | 70 | 1014.6 |
| 20260508045732 | 48 | 144 | 1.7 | 1.7 | 0.00 | 0.00 | 0.00 | 71 | 1014.6 |
| 20260508045231 | 48 | 151 | 0.9 | 1.7 | 0.00 | 0.00 | 0.00 | 71 | 1014.7 |
| 20260508044731 | 48 | 162 | 0.9 | 1.7 | 0.00 | 0.00 | 0.00 | 70 | 1014.7 |
| 20260508044232 | 48 | 179 | 1.7 | 3.5 | 0.00 | 0.00 | 0.00 | 71 | 1014.6 |
| 20260508043732 | 48 | 163 | 1.7 | 1.7 | 0.00 | 0.00 | 0.00 | 71 | 1014.5 |
| 20260508043231 | 47 | 161 | 0.9 | 1.7 | 0.00 | 0.00 | 0.00 | 71 | 1014.5 |
| 20260508042731 | 48 | 178 | 0.9 | 1.7 | 0.00 | 0.00 | 0.00 | 71 | 1014.5 |
| 20260508042231 | 48 | 148 | 0.9 | 1.7 | 0.00 | 0.00 | 0.00 | 71 | 1014.5 |
| 20260508041733 | 48 | 172 | 0.9 | 1.7 | 0.00 | 0.00 | 0.00 | 71 | 1014.5 |
| 20260508041231 | 48 | 185 | 0.0 | 0.9 | 0.00 | 0.00 | 0.00 | 70 | 1014.6 |
| 20260508040733 | 48 | 197 | 0.9 | 1.7 | 0.00 | 0.00 | 0.00 | 70 | 1014.6 |
| 20260508040231 | 48 | 186 | 0.9 | 1.7 | 0.00 | 0.00 | 0.00 | 68 | 1014.5 |
| 20260508035731 | 48 | 186 | 0.9 | 1.7 | 0.00 | 0.00 | 0.00 | 68 | 1014.4 |
| 20260508035231 | 49 | 150 | 0.9 | 1.7 | 0.00 | 0.00 | 0.00 | 68 | 1014.4 |
| 20260508034731 | 48 | 165 | 0.9 | 1.7 | 0.00 | 0.00 | 0.00 | 68 | 1014.4 |
| 20260508034232 | 48 | 146 | 1.7 | 1.7 | 0.00 | 0.00 | 0.00 | 68 | 1014.5 |
| 20260508033731 | 48 | 148 | 0.9 | 1.7 | 0.00 | 0.00 | 0.00 | 68 | 1014.5 |
| 20260508033232 | 49 | 155 | 0.0 | 1.7 | 0.00 | 0.00 | 0.00 | 67 | 1014.5 |
| 20260508032731 | 49 | 156 | 1.7 | 1.7 | 0.00 | 0.00 | 0.00 | 67 | 1014.5 |
| 20260508032234 | 49 | 160 | 0.9 | 1.7 | 0.00 | 0.00 | 0.00 | 67 | 1014.5 |
| 20260508031732 | 49 | 150 | 1.7 | 2.6 | 0.00 | 0.00 | 0.00 | 68 | 1014.4 |
| 20260508031231 | 49 | 197 | 0.9 | 1.7 | 0.00 | 0.00 | 0.00 | 67 | 1014.5 |
| 20260508030732 | 48 | 193 | 0.9 | 1.7 | 0.00 | 0.00 | 0.00 | 67 | 1014.5 |
| 20260508030231 | 48 | 196 | 0.0 | 1.7 | 0.00 | 0.00 | 0.00 | 67 | 1014.4 |
| 20260508025731 | 47 | 170 | 0.9 | 1.7 | 0.00 | 0.00 | 0.00 | 70 | 1014.3 |
| 20260508025232 | 47 | 136 | 1.7 | 3.5 | 0.00 | 0.00 | 0.00 | 74 | 1014.2 |
| 20260508024732 | 47 | 161 | 0.0 | 1.7 | 0.00 | 0.00 | 0.00 | 73 | 1014.3 |